East Northport, New York
Current Conditions -  °F | °C
As of 11:53 PM on Monday 20 Oct 2014 (Local Time) from KFRG Reporting Station
Clear Clear  
Wind Chill: 59°   Ceiling: Unl
Heat Index: 59°   Visibility: 10mi
Dew Point: 47°   Wind: 9mph
Humidity: 64%   Direction: 220°SW
Pressure: 29.98"   Gusts: NA
Location:  40.88°N, 73.31°W
Report Text: KFRG 210353Z 22008KT 10SM CLR 15/08 A2998 RMK AO2 SLP151 T01500083
Loading
Personal Weather Stations






























Interactive Weather Map
Tropical Storm Tracking
New forecast layout! Learn more

10-Day Weather Forecast

Advertisements
Track Severe Weather on mobile